< < Back
Terminal Aerodrome Forecast


Current Version              Previous Versions:   1  2  3  4  5  6  7  8  9  

Terminal Aerodrome Forecast

559
FTUS42 KTAE 270533
TAFTLH
TAF
KTLH 270533Z 2706/2806 11004KT P6SM BKN250
     FM271100 10003KT P6SM SCT010 SCT250
     FM271700 VRB15G25KT 2SM TSRA SCT020 BKN050CB
     FM272100 11009KT P6SM VCTS SCT050CB BKN250
     FM280200 08004KT P6SM BKN250=

Latest METAR

588
SAUS80 KWBC 270858
MTRTLH
METAR KTLH 270853Z AUTO 00000KT 10SM CLR 22/20 A3014 RMK AO2 SLP204
T02170200 55012


USA.gov is the U.S. government's official web portal to all federal, state and local government web resources and services.